createdAt,value
2019-04-16T00:01:47.038Z,9.00
2019-04-16T00:04:33.489Z,9.63
2019-04-16T00:07:29.224Z,9.60
2019-04-16T00:10:32.423Z,9.63
2019-04-16T00:13:19.020Z,10.13
2019-04-16T00:15:47.925Z,9.33
2019-04-16T00:18:18.700Z,9.55
2019-04-16T00:20:57.674Z,9.93
2019-04-16T00:23:39.482Z,9.93
2019-04-16T00:26:08.273Z,9.50
2019-04-16T00:28:37.163Z,9.33
2019-04-16T00:31:05.987Z,10.00
2019-04-16T00:33:34.916Z,9.43
2019-04-16T00:36:03.742Z,9.73
2019-04-16T00:38:40.641Z,9.78
2019-04-16T00:41:02.979Z,9.73
2019-04-16T00:43:32.336Z,9.90
2019-04-16T00:46:01.186Z,9.60
2019-04-16T00:48:30.010Z,9.63
2019-04-16T00:50:58.866Z,8.83
2019-04-16T00:53:27.611Z,9.87
2019-04-16T00:55:56.375Z,9.55
2019-04-16T00:58:25.210Z,9.80
2019-04-16T01:00:53.956Z,9.70
2019-04-16T01:03:22.711Z,9.30
2019-04-16T01:05:52.226Z,8.93
2019-04-16T01:08:21.019Z,9.40
2019-04-16T01:10:49.754Z,9.27
2019-04-16T01:13:18.534Z,9.63
2019-04-16T01:15:47.284Z,10.03
2019-04-16T01:18:16.082Z,9.90
2019-04-16T01:20:44.814Z,10.33
2019-04-16T01:23:17.555Z,10.15
2019-04-16T01:25:44.072Z,10.27
2019-04-16T01:28:16.007Z,10.32
2019-04-16T01:31:06.911Z,10.03
2019-04-16T01:33:43.408Z,9.67
2019-04-16T01:36:35.544Z,10.37
2019-04-16T01:39:15.797Z,10.28
2019-04-16T01:41:37.294Z,10.03
2019-04-16T01:44:06.202Z,10.07
2019-04-16T01:46:35.127Z,10.35
2019-04-16T01:49:03.935Z,10.77
2019-04-16T01:51:32.684Z,9.45
2019-04-16T01:54:01.419Z,10.60
2019-04-16T01:56:30.278Z,9.90
2019-04-16T01:58:59.011Z,9.97
2019-04-16T02:01:27.786Z,9.70
2019-04-16T02:03:56.496Z,10.30
2019-04-16T02:06:26.058Z,10.00
2019-04-16T02:08:55.460Z,9.73
2019-04-16T02:11:24.267Z,9.80
2019-04-16T02:13:53.003Z,10.05
2019-04-16T02:16:22.372Z,9.07
2019-04-16T02:18:52.321Z,10.15
2019-04-16T02:21:21.146Z,9.57
2019-04-16T02:23:49.877Z,10.03
2019-04-16T02:26:20.543Z,9.27
2019-04-16T02:28:49.138Z,9.87
2019-04-16T02:31:17.905Z,9.05
2019-04-16T02:33:46.675Z,9.00
2019-04-16T02:36:15.489Z,10.13
2019-04-16T02:38:52.345Z,9.67
2019-04-16T02:41:14.827Z,10.00
2019-04-16T02:43:43.650Z,9.93
2019-04-16T02:46:13.608Z,10.13
2019-04-16T02:48:50.232Z,9.73
2019-04-16T02:51:21.315Z,9.53
2019-04-16T02:54:24.226Z,9.93
2019-04-16T02:57:04.572Z,9.50
2019-04-16T02:59:36.450Z,9.87
2019-04-16T03:02:33.510Z,10.43
2019-04-16T03:05:26.498Z,11.17
2019-04-16T03:07:55.251Z,10.33
2019-04-16T03:10:24.018Z,10.03
2019-04-16T03:12:52.958Z,9.40
2019-04-16T03:15:45.761Z,9.40
2019-04-16T03:18:16.207Z,10.10
2019-04-16T03:20:45.181Z,8.97
2019-04-16T03:23:13.980Z,10.43
2019-04-16T03:25:44.429Z,10.30
2019-04-16T03:28:13.250Z,10.60
2019-04-16T03:30:42.820Z,9.70
2019-04-16T03:33:14.282Z,9.17
2019-04-16T03:35:42.532Z,9.70
2019-04-16T03:38:11.284Z,9.98
2019-04-16T03:40:40.033Z,9.93
2019-04-16T03:43:08.759Z,9.95
2019-04-16T03:45:40.309Z,9.87
2019-04-16T03:48:08.075Z,9.80
2019-04-16T03:50:36.898Z,9.60
2019-04-16T03:53:05.668Z,10.60
2019-04-16T03:55:34.467Z,9.80
2019-04-16T03:58:06.157Z,9.73
2019-04-16T04:00:33.801Z,9.93
2019-04-16T04:03:02.567Z,9.50
2019-04-16T04:05:31.307Z,9.43
2019-04-16T04:08:00.048Z,10.40
2019-04-16T04:10:31.429Z,9.87
2019-04-16T04:12:59.287Z,9.37
2019-04-16T04:15:28.205Z,9.93
2019-04-16T04:17:57.133Z,9.53
2019-04-16T04:20:25.856Z,17.10
2019-04-16T04:22:57.023Z,14.93
2019-04-16T04:25:25.105Z,12.30
2019-04-16T04:27:53.837Z,10.20
2019-04-16T04:30:25.771Z,9.83
2019-04-16T04:32:55.008Z,9.70
2019-04-16T04:35:23.820Z,10.20
2019-04-16T04:37:52.590Z,9.90
2019-04-16T04:40:21.346Z,10.27
2019-04-16T04:42:50.376Z,9.98
2019-04-16T04:45:19.126Z,10.13
2019-04-16T04:47:51.001Z,10.53
2019-04-16T04:50:18.533Z,9.87
2019-04-16T04:52:47.354Z,10.87
2019-04-16T04:55:16.461Z,10.43
2019-04-16T04:57:45.198Z,11.83
2019-04-16T05:00:14.410Z,15.85
2019-04-16T05:02:44.326Z,12.83
2019-04-16T05:05:25.800Z,11.53
2019-04-16T05:07:59.704Z,9.80
2019-04-16T05:10:25.247Z,11.45
2019-04-16T05:12:54.016Z,10.57
2019-04-16T05:15:23.001Z,13.53
2019-04-16T05:17:51.702Z,11.93
2019-04-16T05:20:21.462Z,9.63
2019-04-16T05:22:50.608Z,10.10
2019-04-16T05:25:20.688Z,10.43
2019-04-16T05:27:49.427Z,10.20
2019-04-16T05:30:21.121Z,10.20
2019-04-16T05:32:48.706Z,9.73
2019-04-16T05:35:17.552Z,10.07
2019-04-16T05:37:48.521Z,9.25
2019-04-16T05:40:16.852Z,9.30
2019-04-16T05:42:45.633Z,9.57
2019-04-16T05:45:15.218Z,10.40
2019-04-16T05:47:48.806Z,9.68
2019-04-16T05:50:15.975Z,9.93
2019-04-16T05:52:46.150Z,8.97
2019-04-16T05:55:27.903Z,9.77
2019-04-16T05:58:00.246Z,9.50
2019-04-16T06:01:00.443Z,9.57
2019-04-16T06:03:29.300Z,9.63
2019-04-16T06:06:00.005Z,9.50
2019-04-16T06:08:30.362Z,10.07
2019-04-16T06:11:02.877Z,10.60
2019-04-16T06:14:17.942Z,10.60
2019-04-16T06:17:12.945Z,10.53
2019-04-16T06:19:51.196Z,10.90
2019-04-16T06:22:38.314Z,10.60
2019-04-16T06:25:25.445Z,10.07
2019-04-16T06:28:04.870Z,11.73
2019-04-16T06:30:56.859Z,10.80
2019-04-16T06:33:32.762Z,11.43
2019-04-16T06:36:11.224Z,10.80
2019-04-16T06:38:59.065Z,11.13
2019-04-16T06:41:53.194Z,10.90
2019-04-16T06:44:29.774Z,10.80
2019-04-16T06:47:26.332Z,10.82
2019-04-16T06:50:13.150Z,9.98
2019-04-16T06:52:59.402Z,11.23
2019-04-16T06:55:42.977Z,11.93
2019-04-16T06:58:50.668Z,11.03
2019-04-16T07:01:23.431Z,11.37
2019-04-16T07:03:59.679Z,10.17
2019-04-16T07:07:07.885Z,10.67
2019-04-16T07:09:56.652Z,11.47
2019-04-16T07:12:24.149Z,11.27
2019-04-16T07:14:53.016Z,11.50
2019-04-16T07:17:22.515Z,11.40
2019-04-16T07:19:51.456Z,11.80
2019-04-16T07:22:21.283Z,10.90
2019-04-16T07:25:03.825Z,10.37
2019-04-16T07:27:44.623Z,10.17
2019-04-16T07:30:24.227Z,10.85
2019-04-16T07:33:09.103Z,10.80
2019-04-16T07:35:54.203Z,10.37
2019-04-16T07:38:40.970Z,10.80
2019-04-16T07:41:47.141Z,10.80
2019-04-16T07:44:21.344Z,10.37
2019-04-16T07:47:06.763Z,11.37
2019-04-16T07:49:49.386Z,10.40
2019-04-16T07:52:38.946Z,11.67
2019-04-16T07:55:16.448Z,10.73
2019-04-16T07:57:45.303Z,11.18
2019-04-16T08:00:15.682Z,11.27
2019-04-16T08:02:44.424Z,12.07
2019-04-16T08:05:13.411Z,10.80
2019-04-16T08:07:42.287Z,12.57
2019-04-16T08:10:11.500Z,12.27
2019-04-16T08:12:44.118Z,11.47
2019-04-16T08:15:15.236Z,11.70
2019-04-16T08:17:43.589Z,11.27
2019-04-16T08:20:12.902Z,11.73
2019-04-16T08:22:47.335Z,11.70
2019-04-16T08:25:12.234Z,11.60
2019-04-16T08:27:41.049Z,12.03
2019-04-16T08:30:12.608Z,11.55
2019-04-16T08:32:41.354Z,11.80
2019-04-16T08:35:11.054Z,12.58
2019-04-16T08:37:48.899Z,12.53
2019-04-16T08:40:12.545Z,11.73
2019-04-16T08:42:44.587Z,11.97
2019-04-16T08:45:12.569Z,12.93
2019-04-16T08:47:44.556Z,12.63
2019-04-16T08:50:12.605Z,12.50
2019-04-16T08:52:42.500Z,13.43
2019-04-16T08:55:11.540Z,13.17
2019-04-16T08:57:40.294Z,12.70
2019-04-16T09:00:14.082Z,13.70
2019-04-16T09:02:41.759Z,13.83
2019-04-16T09:05:11.750Z,14.27
2019-04-16T09:07:40.928Z,13.18
2019-04-16T09:10:18.100Z,14.00
2019-04-16T09:12:50.705Z,14.38
2019-04-16T09:15:19.862Z,14.10
2019-04-16T09:17:51.391Z,13.70
2019-04-16T09:20:34.766Z,14.10
2019-04-16T09:23:04.618Z,14.80
2019-04-16T09:25:45.717Z,14.00
2019-04-16T09:28:25.928Z,13.83
2019-04-16T09:31:13.652Z,14.00
2019-04-16T09:33:48.795Z,14.93
2019-04-16T09:36:25.966Z,15.67
2019-04-16T09:39:02.580Z,13.97
2019-04-16T09:41:34.201Z,14.03
2019-04-16T09:44:03.464Z,14.70
2019-04-16T09:46:50.385Z,14.43
2019-04-16T09:49:04.733Z,14.77
2019-04-16T09:51:33.795Z,14.93
2019-04-16T09:54:02.658Z,15.20
2019-04-16T09:56:32.254Z,15.10
2019-04-16T09:59:11.102Z,14.03
2019-04-16T10:01:51.621Z,15.37
2019-04-16T10:07:56.882Z,15.20
